Terminal Aerodrome Forecast
Issued by NWS

Home | Current Version | Previous Version | Text Only | Print | Product List | Glossary On
Versions: 1 2 3 4 5 6 7 8 9 10 11 12 13 14 15 16 17 18 19 20 21 22 23 24 25 26 27 28 29 30 31 32 33 34 35 36 37 38
000
FTAK31 PAFA 232339
TAFAFA
TAF
PAFA 232339Z 2400/2506 VRB04KT P6SM SCT025 BKN050 BKN120
     FM240400 05004KT P6SM -SHRA SCT025 BKN035 OVC070
     FM241000 VRB03KT P6SM VCSH BKN035 OVC060
     FM241500 VRB03KT P6SM BCFG FEW005 BKN030 BKN060
     FM241800 09004KT P6SM SCT040 BKN090=

USA.gov is the U.S. government's official web portal to all federal, state and local government web resources and services.